sensor_id;sensor_type;location;lat;lon;timestamp;P1;durP1;ratioP1;P2;durP2;ratioP2
6121;SDS011;3091;51.506;7.672;2023-08-12T00:00:36;132.47;;;126.47;;
6121;SDS011;3091;51.506;7.672;2023-08-12T00:03:02;136.30;;;129.63;;
6121;SDS011;3091;51.506;7.672;2023-08-12T00:05:28;135.13;;;128.93;;
6121;SDS011;3091;51.506;7.672;2023-08-12T00:07:55;131.33;;;125.13;;
6121;SDS011;3091;51.506;7.672;2023-08-12T00:10:24;115.67;;;110.00;;
6121;SDS011;3091;51.506;7.672;2023-08-12T00:12:50;115.20;;;109.60;;
6121;SDS011;3091;51.506;7.672;2023-08-12T00:15:16;108.37;;;103.07;;
6121;SDS011;3091;51.506;7.672;2023-08-12T00:17:42;96.37;;;91.43;;
6121;SDS011;3091;51.506;7.672;2023-08-12T00:20:08;87.20;;;82.60;;
6121;SDS011;3091;51.506;7.672;2023-08-12T00:22:36;76.00;;;71.60;;
6121;SDS011;3091;51.506;7.672;2023-08-12T00:25:02;78.90;;;74.50;;
6121;SDS011;3091;51.506;7.672;2023-08-12T00:27:28;80.57;;;76.07;;
6121;SDS011;3091;51.506;7.672;2023-08-12T00:29:54;72.87;;;68.83;;
6121;SDS011;3091;51.506;7.672;2023-08-12T00:32:20;75.03;;;70.93;;
6121;SDS011;3091;51.506;7.672;2023-08-12T00:34:46;64.63;;;60.83;;
6121;SDS011;3091;51.506;7.672;2023-08-12T00:37:12;53.90;;;50.40;;
6121;SDS011;3091;51.506;7.672;2023-08-12T00:39:38;47.90;;;44.70;;
6121;SDS011;3091;51.506;7.672;2023-08-12T00:42:04;47.10;;;43.90;;
6121;SDS011;3091;51.506;7.672;2023-08-12T00:44:30;53.70;;;50.40;;
6121;SDS011;3091;51.506;7.672;2023-08-12T00:46:57;51.47;;;48.27;;
6121;SDS011;3091;51.506;7.672;2023-08-12T00:49:23;53.33;;;50.00;;
6121;SDS011;3091;51.506;7.672;2023-08-12T00:51:49;55.30;;;51.90;;
6121;SDS011;3091;51.506;7.672;2023-08-12T00:54:16;54.00;;;50.60;;
6121;SDS011;3091;51.506;7.672;2023-08-12T00:56:42;48.70;;;45.40;;
6121;SDS011;3091;51.506;7.672;2023-08-12T00:59:09;47.10;;;43.90;;
6121;SDS011;3091;51.506;7.672;2023-08-12T01:01:35;47.20;;;44.20;;
6121;SDS011;3091;51.506;7.672;2023-08-12T01:04:03;46.57;;;43.57;;
6121;SDS011;3091;51.506;7.672;2023-08-12T01:06:29;42.43;;;39.63;;
6121;SDS011;3091;51.506;7.672;2023-08-12T01:08:56;43.00;;;40.20;;
6121;SDS011;3091;51.506;7.672;2023-08-12T01:11:32;43.70;;;40.80;;
6121;SDS011;3091;51.506;7.672;2023-08-12T01:14:14;40.90;;;38.10;;
6121;SDS011;3091;51.506;7.672;2023-08-12T01:16:46;38.50;;;35.80;;
6121;SDS011;3091;51.506;7.672;2023-08-12T01:21:59;40.20;;;37.40;;
6121;SDS011;3091;51.506;7.672;2023-08-12T01:24:26;45.37;;;42.37;;
6121;SDS011;3091;51.506;7.672;2023-08-12T01:26:53;46.60;;;43.50;;
6121;SDS011;3091;51.506;7.672;2023-08-12T01:29:20;45.90;;;42.90;;
6121;SDS011;3091;51.506;7.672;2023-08-12T01:31:51;45.80;;;42.80;;
6121;SDS011;3091;51.506;7.672;2023-08-12T01:34:28;44.57;;;41.63;;
6121;SDS011;3091;51.506;7.672;2023-08-12T01:36:58;42.70;;;39.90;;
6121;SDS011;3091;51.506;7.672;2023-08-12T01:39:25;37.27;;;34.67;;
6121;SDS011;3091;51.506;7.672;2023-08-12T01:41:52;36.90;;;34.33;;
6121;SDS011;3091;51.506;7.672;2023-08-12T01:44:19;36.63;;;34.13;;
6121;SDS011;3091;51.506;7.672;2023-08-12T01:46:45;36.70;;;34.10;;
6121;SDS011;3091;51.506;7.672;2023-08-12T01:49:11;35.97;;;33.47;;
6121;SDS011;3091;51.506;7.672;2023-08-12T01:51:37;36.90;;;34.30;;
6121;SDS011;3091;51.506;7.672;2023-08-12T01:54:03;37.00;;;34.47;;
6121;SDS011;3091;51.506;7.672;2023-08-12T01:56:29;35.20;;;32.70;;
6121;SDS011;3091;51.506;7.672;2023-08-12T01:58:55;34.97;;;32.50;;
6121;SDS011;3091;51.506;7.672;2023-08-12T02:01:21;36.83;;;34.10;;
6121;SDS011;3091;51.506;7.672;2023-08-12T02:03:47;35.60;;;33.10;;
6121;SDS011;3091;51.506;7.672;2023-08-12T02:06:13;35.40;;;33.00;;
6121;SDS011;3091;51.506;7.672;2023-08-12T02:08:39;32.53;;;30.23;;
6121;SDS011;3091;51.506;7.672;2023-08-12T02:11:05;32.70;;;30.40;;
6121;SDS011;3091;51.506;7.672;2023-08-12T02:13:34;30.00;;;27.90;;
6121;SDS011;3091;51.506;7.672;2023-08-12T02:16:00;31.43;;;28.93;;
6121;SDS011;3091;51.506;7.672;2023-08-12T02:18:26;30.90;;;28.70;;
6121;SDS011;3091;51.506;7.672;2023-08-12T02:20:52;30.83;;;28.63;;
6121;SDS011;3091;51.506;7.672;2023-08-12T02:23:18;28.70;;;26.50;;
6121;SDS011;3091;51.506;7.672;2023-08-12T02:25:44;26.53;;;24.73;;
6121;SDS011;3091;51.506;7.672;2023-08-12T02:28:10;27.33;;;25.53;;
6121;SDS011;3091;51.506;7.672;2023-08-12T02:30:41;29.27;;;27.27;;
6121;SDS011;3091;51.506;7.672;2023-08-12T02:33:08;26.97;;;25.10;;
6121;SDS011;3091;51.506;7.672;2023-08-12T02:35:34;27.60;;;25.70;;
6121;SDS011;3091;51.506;7.672;2023-08-12T02:38:00;28.83;;;26.83;;
6121;SDS011;3091;51.506;7.672;2023-08-12T02:40:26;29.53;;;27.03;;
6121;SDS011;3091;51.506;7.672;2023-08-12T02:42:52;29.50;;;27.10;;
6121;SDS011;3091;51.506;7.672;2023-08-12T02:45:18;27.93;;;25.93;;
6121;SDS011;3091;51.506;7.672;2023-08-12T02:47:44;31.50;;;29.27;;
6121;SDS011;3091;51.506;7.672;2023-08-12T02:50:10;27.23;;;25.33;;
6121;SDS011;3091;51.506;7.672;2023-08-12T02:52:36;27.00;;;25.20;;
6121;SDS011;3091;51.506;7.672;2023-08-12T02:55:02;28.33;;;26.33;;
6121;SDS011;3091;51.506;7.672;2023-08-12T02:57:31;27.60;;;25.80;;
6121;SDS011;3091;51.506;7.672;2023-08-12T02:59:57;28.40;;;26.50;;
6121;SDS011;3091;51.506;7.672;2023-08-12T03:02:23;30.63;;;28.60;;
6121;SDS011;3091;51.506;7.672;2023-08-12T03:04:49;28.90;;;26.60;;
6121;SDS011;3091;51.506;7.672;2023-08-12T03:07:17;29.97;;;27.87;;
6121;SDS011;3091;51.506;7.672;2023-08-12T03:09:43;27.33;;;25.53;;
6121;SDS011;3091;51.506;7.672;2023-08-12T03:12:09;29.47;;;27.30;;
6121;SDS011;3091;51.506;7.672;2023-08-12T03:14:35;31.07;;;29.00;;
6121;SDS011;3091;51.506;7.672;2023-08-12T03:17:01;29.33;;;27.13;;
6121;SDS011;3091;51.506;7.672;2023-08-12T03:19:28;32.70;;;30.17;;
6121;SDS011;3091;51.506;7.672;2023-08-12T03:21:54;27.43;;;25.73;;
6121;SDS011;3091;51.506;7.672;2023-08-12T03:24:20;28.73;;;26.80;;
6121;SDS011;3091;51.506;7.672;2023-08-12T03:26:46;29.57;;;27.70;;
6121;SDS011;3091;51.506;7.672;2023-08-12T03:29:12;29.10;;;27.00;;
6121;SDS011;3091;51.506;7.672;2023-08-12T03:31:38;28.23;;;26.10;;
6121;SDS011;3091;51.506;7.672;2023-08-12T03:34:04;24.87;;;23.27;;
6121;SDS011;3091;51.506;7.672;2023-08-12T03:36:31;27.27;;;25.30;;
6121;SDS011;3091;51.506;7.672;2023-08-12T03:38:57;26.37;;;24.20;;
6121;SDS011;3091;51.506;7.672;2023-08-12T03:41:23;23.37;;;21.87;;
6121;SDS011;3091;51.506;7.672;2023-08-12T03:43:49;28.23;;;26.20;;
6121;SDS011;3091;51.506;7.672;2023-08-12T03:46:15;27.13;;;25.33;;
6121;SDS011;3091;51.506;7.672;2023-08-12T03:48:41;24.90;;;23.40;;
6121;SDS011;3091;51.506;7.672;2023-08-12T03:51:07;28.60;;;26.70;;
6121;SDS011;3091;51.506;7.672;2023-08-12T03:53:34;27.80;;;25.90;;
6121;SDS011;3091;51.506;7.672;2023-08-12T03:56:00;25.40;;;23.90;;
6121;SDS011;3091;51.506;7.672;2023-08-12T03:58:26;28.40;;;26.60;;
6121;SDS011;3091;51.506;7.672;2023-08-12T04:00:52;26.13;;;24.23;;
6121;SDS011;3091;51.506;7.672;2023-08-12T04:03:20;23.93;;;22.43;;
6121;SDS011;3091;51.506;7.672;2023-08-12T04:05:47;24.37;;;22.77;;
6121;SDS011;3091;51.506;7.672;2023-08-12T04:08:13;24.70;;;23.10;;
6121;SDS011;3091;51.506;7.672;2023-08-12T04:10:39;23.60;;;22.10;;
6121;SDS011;3091;51.506;7.672;2023-08-12T04:13:05;25.13;;;23.33;;
6121;SDS011;3091;51.506;7.672;2023-08-12T04:15:31;24.77;;;23.17;;
6121;SDS011;3091;51.506;7.672;2023-08-12T04:17:57;24.70;;;23.10;;
6121;SDS011;3091;51.506;7.672;2023-08-12T04:20:24;24.70;;;23.10;;
6121;SDS011;3091;51.506;7.672;2023-08-12T04:22:50;24.70;;;23.00;;
6121;SDS011;3091;51.506;7.672;2023-08-12T04:25:17;26.77;;;25.07;;
6121;SDS011;3091;51.506;7.672;2023-08-12T04:27:44;26.57;;;24.77;;
6121;SDS011;3091;51.506;7.672;2023-08-12T04:30:15;28.60;;;26.70;;
6121;SDS011;3091;51.506;7.672;2023-08-12T04:32:41;26.67;;;25.07;;
6121;SDS011;3091;51.506;7.672;2023-08-12T04:35:08;27.73;;;26.03;;
6121;SDS011;3091;51.506;7.672;2023-08-12T04:37:35;27.53;;;25.73;;
6121;SDS011;3091;51.506;7.672;2023-08-12T04:40:01;26.77;;;24.87;;
6121;SDS011;3091;51.506;7.672;2023-08-12T04:42:32;25.07;;;23.47;;
6121;SDS011;3091;51.506;7.672;2023-08-12T04:44:58;24.87;;;23.17;;
6121;SDS011;3091;51.506;7.672;2023-08-12T04:47:24;52.00;;;49.33;;
6121;SDS011;3091;51.506;7.672;2023-08-12T04:49:50;52.77;;;50.00;;
6121;SDS011;3091;51.506;7.672;2023-08-12T04:52:16;50.03;;;47.53;;
6121;SDS011;3091;51.506;7.672;2023-08-12T04:54:42;51.47;;;48.50;;
6121;SDS011;3091;51.506;7.672;2023-08-12T04:57:08;54.13;;;51.20;;
6121;SDS011;3091;51.506;7.672;2023-08-12T04:59:34;54.87;;;51.90;;
6121;SDS011;3091;51.506;7.672;2023-08-12T05:02:01;55.07;;;51.57;;
6121;SDS011;3091;51.506;7.672;2023-08-12T05:04:27;53.50;;;50.80;;
6121;SDS011;3091;51.506;7.672;2023-08-12T05:06:53;51.60;;;49.00;;
6121;SDS011;3091;51.506;7.672;2023-08-12T05:09:21;53.43;;;50.73;;
6121;SDS011;3091;51.506;7.672;2023-08-12T05:11:47;54.70;;;51.63;;
6121;SDS011;3091;51.506;7.672;2023-08-12T05:14:13;54.10;;;51.30;;
6121;SDS011;3091;51.506;7.672;2023-08-12T05:16:40;52.30;;;49.60;;
6121;SDS011;3091;51.506;7.672;2023-08-12T05:19:06;52.80;;;50.10;;
6121;SDS011;3091;51.506;7.672;2023-08-12T05:21:32;52.93;;;50.23;;
6121;SDS011;3091;51.506;7.672;2023-08-12T05:23:58;51.97;;;49.37;;
6121;SDS011;3091;51.506;7.672;2023-08-12T05:26:24;50.53;;;48.03;;
6121;SDS011;3091;51.506;7.672;2023-08-12T05:28:50;49.93;;;47.33;;
6121;SDS011;3091;51.506;7.672;2023-08-12T05:31:18;48.40;;;46.00;;
6121;SDS011;3091;51.506;7.672;2023-08-12T05:33:44;46.80;;;44.50;;
6121;SDS011;3091;51.506;7.672;2023-08-12T05:36:10;44.00;;;41.90;;
6121;SDS011;3091;51.506;7.672;2023-08-12T05:38:36;44.73;;;42.63;;
6121;SDS011;3091;51.506;7.672;2023-08-12T05:41:02;43.43;;;41.20;;
6121;SDS011;3091;51.506;7.672;2023-08-12T05:43:32;41.43;;;39.43;;
6121;SDS011;3091;51.506;7.672;2023-08-12T05:45:58;40.67;;;38.67;;
6121;SDS011;3091;51.506;7.672;2023-08-12T05:48:24;37.30;;;35.50;;
6121;SDS011;3091;51.506;7.672;2023-08-12T05:50:50;36.30;;;34.50;;
6121;SDS011;3091;51.506;7.672;2023-08-12T05:53:16;36.43;;;34.63;;
6121;SDS011;3091;51.506;7.672;2023-08-12T05:55:42;34.67;;;32.97;;
6121;SDS011;3091;51.506;7.672;2023-08-12T05:58:11;33.50;;;31.90;;
6121;SDS011;3091;51.506;7.672;2023-08-12T06:00:37;34.20;;;32.50;;
6121;SDS011;3091;51.506;7.672;2023-08-12T06:03:03;33.60;;;32.00;;
6121;SDS011;3091;51.506;7.672;2023-08-12T06:05:29;33.67;;;32.00;;
6121;SDS011;3091;51.506;7.672;2023-08-12T06:07:55;33.10;;;31.50;;
6121;SDS011;3091;51.506;7.672;2023-08-12T06:10:21;33.70;;;32.10;;
6121;SDS011;3091;51.506;7.672;2023-08-12T06:12:47;31.00;;;29.50;;
6121;SDS011;3091;51.506;7.672;2023-08-12T06:15:13;30.90;;;29.50;;
6121;SDS011;3091;51.506;7.672;2023-08-12T06:17:39;30.60;;;29.20;;
6121;SDS011;3091;51.506;7.672;2023-08-12T06:20:05;31.73;;;30.13;;
6121;SDS011;3091;51.506;7.672;2023-08-12T06:22:32;30.90;;;29.50;;
6121;SDS011;3091;51.506;7.672;2023-08-12T06:24:58;30.50;;;29.20;;
6121;SDS011;3091;51.506;7.672;2023-08-12T06:27:24;27.70;;;26.60;;
6121;SDS011;3091;51.506;7.672;2023-08-12T06:29:50;26.13;;;25.00;;
6121;SDS011;3091;51.506;7.672;2023-08-12T06:32:16;24.17;;;23.07;;
6121;SDS011;3091;51.506;7.672;2023-08-12T06:34:42;24.70;;;23.80;;
6121;SDS011;3091;51.506;7.672;2023-08-12T06:37:08;24.50;;;23.60;;
6121;SDS011;3091;51.506;7.672;2023-08-12T06:39:34;24.80;;;23.70;;
6121;SDS011;3091;51.506;7.672;2023-08-12T06:42:00;25.67;;;24.67;;
6121;SDS011;3091;51.506;7.672;2023-08-12T06:44:26;24.10;;;23.20;;
6121;SDS011;3091;51.506;7.672;2023-08-12T06:46:52;24.00;;;23.10;;
6121;SDS011;3091;51.506;7.672;2023-08-12T06:49:18;24.00;;;23.10;;
6121;SDS011;3091;51.506;7.672;2023-08-12T06:51:44;25.63;;;24.53;;
6121;SDS011;3091;51.506;7.672;2023-08-12T06:54:10;23.67;;;22.77;;
6121;SDS011;3091;51.506;7.672;2023-08-12T06:56:36;24.97;;;23.97;;
6121;SDS011;3091;51.506;7.672;2023-08-12T06:59:02;24.90;;;23.80;;
6121;SDS011;3091;51.506;7.672;2023-08-12T07:01:28;52.63;;;50.13;;
6121;SDS011;3091;51.506;7.672;2023-08-12T07:03:54;75.73;;;72.13;;
6121;SDS011;3091;51.506;7.672;2023-08-12T07:06:22;82.27;;;78.37;;
6121;SDS011;3091;51.506;7.672;2023-08-12T07:08:48;72.10;;;68.40;;
6121;SDS011;3091;51.506;7.672;2023-08-12T07:11:14;70.53;;;66.93;;
6121;SDS011;3091;51.506;7.672;2023-08-12T07:13:40;67.40;;;63.90;;
6121;SDS011;3091;51.506;7.672;2023-08-12T07:16:07;62.10;;;58.80;;
6121;SDS011;3091;51.506;7.672;2023-08-12T07:18:34;63.50;;;60.10;;
6121;SDS011;3091;51.506;7.672;2023-08-12T07:21:00;62.03;;;58.63;;
6121;SDS011;3091;51.506;7.672;2023-08-12T07:23:33;61.70;;;58.30;;
6121;SDS011;3091;51.506;7.672;2023-08-12T07:25:59;60.70;;;57.40;;
6121;SDS011;3091;51.506;7.672;2023-08-12T07:28:25;60.53;;;57.23;;
6121;SDS011;3091;51.506;7.672;2023-08-12T07:30:51;59.67;;;56.47;;
6121;SDS011;3091;51.506;7.672;2023-08-12T07:33:17;56.63;;;53.60;;
6121;SDS011;3091;51.506;7.672;2023-08-12T07:35:44;56.27;;;53.27;;
6121;SDS011;3091;51.506;7.672;2023-08-12T07:38:10;56.90;;;53.90;;
6121;SDS011;3091;51.506;7.672;2023-08-12T07:40:36;57.77;;;54.67;;
6121;SDS011;3091;51.506;7.672;2023-08-12T07:43:02;54.07;;;51.17;;
6121;SDS011;3091;51.506;7.672;2023-08-12T07:45:29;52.57;;;49.77;;
6121;SDS011;3091;51.506;7.672;2023-08-12T07:47:55;56.57;;;53.47;;
6121;SDS011;3091;51.506;7.672;2023-08-12T07:50:23;55.53;;;52.53;;
6121;SDS011;3091;51.506;7.672;2023-08-12T07:52:49;57.20;;;54.10;;
6121;SDS011;3091;51.506;7.672;2023-08-12T07:55:16;58.20;;;55.10;;
6121;SDS011;3091;51.506;7.672;2023-08-12T07:57:44;61.47;;;58.17;;
6121;SDS011;3091;51.506;7.672;2023-08-12T08:00:10;68.00;;;64.40;;
6121;SDS011;3091;51.506;7.672;2023-08-12T08:02:37;71.07;;;67.37;;
6121;SDS011;3091;51.506;7.672;2023-08-12T08:05:03;83.17;;;78.87;;
6121;SDS011;3091;51.506;7.672;2023-08-12T08:07:30;99.70;;;95.00;;
6121;SDS011;3091;51.506;7.672;2023-08-12T08:09:59;101.70;;;97.10;;
6121;SDS011;3091;51.506;7.672;2023-08-12T08:12:25;101.83;;;97.53;;
6121;SDS011;3091;51.506;7.672;2023-08-12T08:14:51;107.43;;;102.93;;
6121;SDS011;3091;51.506;7.672;2023-08-12T08:17:17;104.70;;;100.20;;
6121;SDS011;3091;51.506;7.672;2023-08-12T08:19:43;98.27;;;94.07;;
6121;SDS011;3091;51.506;7.672;2023-08-12T08:22:09;90.23;;;86.33;;
6121;SDS011;3091;51.506;7.672;2023-08-12T08:24:35;66.37;;;63.33;;
6121;SDS011;3091;51.506;7.672;2023-08-12T08:27:02;50.17;;;47.87;;
6121;SDS011;3091;51.506;7.672;2023-08-12T08:29:29;41.30;;;39.50;;
6121;SDS011;3091;51.506;7.672;2023-08-12T08:31:55;42.60;;;40.80;;
6121;SDS011;3091;51.506;7.672;2023-08-12T08:34:22;40.00;;;38.50;;
6121;SDS011;3091;51.506;7.672;2023-08-12T08:36:48;28.20;;;27.20;;
6121;SDS011;3091;51.506;7.672;2023-08-12T08:39:14;24.03;;;23.23;;
6121;SDS011;3091;51.506;7.672;2023-08-12T08:41:40;26.20;;;25.30;;
6121;SDS011;3091;51.506;7.672;2023-08-12T08:44:07;24.57;;;23.77;;
6121;SDS011;3091;51.506;7.672;2023-08-12T08:46:33;23.77;;;22.97;;
6121;SDS011;3091;51.506;7.672;2023-08-12T08:48:59;20.57;;;19.87;;
6121;SDS011;3091;51.506;7.672;2023-08-12T08:51:29;21.50;;;20.80;;
6121;SDS011;3091;51.506;7.672;2023-08-12T08:53:59;20.90;;;20.20;;
6121;SDS011;3091;51.506;7.672;2023-08-12T08:56:25;21.23;;;20.43;;
6121;SDS011;3091;51.506;7.672;2023-08-12T08:58:52;21.30;;;20.60;;
6121;SDS011;3091;51.506;7.672;2023-08-12T09:01:19;20.97;;;20.27;;
6121;SDS011;3091;51.506;7.672;2023-08-12T09:03:47;20.93;;;20.23;;
6121;SDS011;3091;51.506;7.672;2023-08-12T09:06:13;21.23;;;20.53;;
6121;SDS011;3091;51.506;7.672;2023-08-12T09:08:40;21.30;;;20.60;;
6121;SDS011;3091;51.506;7.672;2023-08-12T09:11:06;20.97;;;20.27;;
6121;SDS011;3091;51.506;7.672;2023-08-12T09:13:33;21.50;;;20.80;;
6121;SDS011;3091;51.506;7.672;2023-08-12T09:15:59;25.53;;;24.70;;
6121;SDS011;3091;51.506;7.672;2023-08-12T09:18:25;22.33;;;21.63;;
6121;SDS011;3091;51.506;7.672;2023-08-12T09:20:51;26.70;;;25.80;;
6121;SDS011;3091;51.506;7.672;2023-08-12T09:23:18;21.90;;;21.20;;
6121;SDS011;3091;51.506;7.672;2023-08-12T09:25:44;20.10;;;19.50;;
6121;SDS011;3091;51.506;7.672;2023-08-12T09:28:11;21.30;;;20.60;;
6121;SDS011;3091;51.506;7.672;2023-08-12T09:30:37;23.57;;;22.77;;
6121;SDS011;3091;51.506;7.672;2023-08-12T09:33:06;18.80;;;18.20;;
6121;SDS011;3091;51.506;7.672;2023-08-12T09:38:00;30.47;;;29.30;;
6121;SDS011;3091;51.506;7.672;2023-08-12T09:40:26;27.40;;;26.30;;
6121;SDS011;3091;51.506;7.672;2023-08-12T09:42:53;24.70;;;23.80;;
6121;SDS011;3091;51.506;7.672;2023-08-12T09:45:19;23.03;;;22.23;;
6121;SDS011;3091;51.506;7.672;2023-08-12T09:47:48;21.60;;;20.80;;
6121;SDS011;3091;51.506;7.672;2023-08-12T09:50:15;24.27;;;22.60;;
6121;SDS011;3091;51.506;7.672;2023-08-12T09:52:41;21.60;;;20.90;;
6121;SDS011;3091;51.506;7.672;2023-08-12T09:55:07;22.63;;;21.83;;
6121;SDS011;3091;51.506;7.672;2023-08-12T09:57:33;23.03;;;22.23;;
6121;SDS011;3091;51.506;7.672;2023-08-12T10:00:02;21.93;;;21.23;;
6121;SDS011;3091;51.506;7.672;2023-08-12T10:02:28;22.23;;;21.53;;
6121;SDS011;3091;51.506;7.672;2023-08-12T10:04:55;21.87;;;21.17;;
6121;SDS011;3091;51.506;7.672;2023-08-12T10:07:23;22.93;;;22.10;;
6121;SDS011;3091;51.506;7.672;2023-08-12T10:09:49;23.90;;;23.10;;
6121;SDS011;3091;51.506;7.672;2023-08-12T10:12:15;22.80;;;22.00;;
6121;SDS011;3091;51.506;7.672;2023-08-12T10:14:42;23.70;;;23.00;;
6121;SDS011;3091;51.506;7.672;2023-08-12T10:17:08;19.60;;;19.00;;
6121;SDS011;3091;51.506;7.672;2023-08-12T10:19:35;18.40;;;17.80;;
6121;SDS011;3091;51.506;7.672;2023-08-12T10:22:02;19.50;;;18.90;;
6121;SDS011;3091;51.506;7.672;2023-08-12T10:24:35;19.90;;;19.20;;
6121;SDS011;3091;51.506;7.672;2023-08-12T10:27:02;19.40;;;18.80;;
6121;SDS011;3091;51.506;7.672;2023-08-12T10:29:29;20.20;;;19.50;;
6121;SDS011;3091;51.506;7.672;2023-08-12T10:31:58;19.50;;;18.80;;
6121;SDS011;3091;51.506;7.672;2023-08-12T10:34:25;19.00;;;18.40;;
6121;SDS011;3091;51.506;7.672;2023-08-12T10:36:55;18.00;;;17.40;;
6121;SDS011;3091;51.506;7.672;2023-08-12T10:39:28;17.90;;;17.30;;
6121;SDS011;3091;51.506;7.672;2023-08-12T10:41:54;18.40;;;17.80;;
6121;SDS011;3091;51.506;7.672;2023-08-12T10:44:21;18.07;;;17.40;;
6121;SDS011;3091;51.506;7.672;2023-08-12T10:46:52;18.30;;;17.70;;
6121;SDS011;3091;51.506;7.672;2023-08-12T10:49:19;18.40;;;17.80;;
6121;SDS011;3091;51.506;7.672;2023-08-12T10:54:27;19.40;;;18.80;;
6121;SDS011;3091;51.506;7.672;2023-08-12T11:02:32;18.30;;;17.70;;
6121;SDS011;3091;51.506;7.672;2023-08-12T11:07:57;19.60;;;19.00;;
6121;SDS011;3091;51.506;7.672;2023-08-12T11:10:30;19.70;;;19.10;;
6121;SDS011;3091;51.506;7.672;2023-08-12T11:13:04;19.87;;;19.27;;
6121;SDS011;3091;51.506;7.672;2023-08-12T11:15:45;20.33;;;19.63;;
6121;SDS011;3091;51.506;7.672;2023-08-12T11:18:12;18.53;;;17.93;;
6121;SDS011;3091;51.506;7.672;2023-08-12T11:20:39;17.60;;;17.10;;
6121;SDS011;3091;51.506;7.672;2023-08-12T11:23:06;18.50;;;17.90;;
6121;SDS011;3091;51.506;7.672;2023-08-12T11:25:32;17.00;;;16.40;;
6121;SDS011;3091;51.506;7.672;2023-08-12T11:27:59;19.80;;;18.90;;
6121;SDS011;3091;51.506;7.672;2023-08-12T11:30:25;17.60;;;17.10;;
6121;SDS011;3091;51.506;7.672;2023-08-12T11:32:52;18.40;;;17.80;;
6121;SDS011;3091;51.506;7.672;2023-08-12T11:35:19;16.83;;;16.33;;
6121;SDS011;3091;51.506;7.672;2023-08-12T11:37:46;16.97;;;16.47;;
6121;SDS011;3091;51.506;7.672;2023-08-12T11:40:14;17.00;;;16.50;;
6121;SDS011;3091;51.506;7.672;2023-08-12T11:42:41;17.40;;;16.83;;
6121;SDS011;3091;51.506;7.672;2023-08-12T11:45:07;18.33;;;17.53;;
6121;SDS011;3091;51.506;7.672;2023-08-12T11:47:34;16.90;;;16.30;;
6121;SDS011;3091;51.506;7.672;2023-08-12T11:50:06;18.80;;;18.20;;
6121;SDS011;3091;51.506;7.672;2023-08-12T11:52:32;20.40;;;19.50;;
6121;SDS011;3091;51.506;7.672;2023-08-12T11:54:58;20.40;;;19.70;;
6121;SDS011;3091;51.506;7.672;2023-08-12T11:57:25;20.80;;;20.00;;
6121;SDS011;3091;51.506;7.672;2023-08-12T12:00:01;21.27;;;20.47;;
6121;SDS011;3091;51.506;7.672;2023-08-12T12:02:30;19.83;;;19.13;;
6121;SDS011;3091;51.506;7.672;2023-08-12T12:04:56;21.17;;;20.37;;
6121;SDS011;3091;51.506;7.672;2023-08-12T12:07:23;20.00;;;19.30;;
6121;SDS011;3091;51.506;7.672;2023-08-12T12:09:53;20.33;;;19.63;;
6121;SDS011;3091;51.506;7.672;2023-08-12T12:12:25;21.70;;;20.90;;
6121;SDS011;3091;51.506;7.672;2023-08-12T12:14:55;25.70;;;24.00;;
6121;SDS011;3091;51.506;7.672;2023-08-12T12:17:22;105.27;;;101.07;;
6121;SDS011;3091;51.506;7.672;2023-08-12T12:19:54;147.57;;;141.57;;
6121;SDS011;3091;51.506;7.672;2023-08-12T12:22:25;148.30;;;142.20;;
6121;SDS011;3091;51.506;7.672;2023-08-12T12:24:51;118.70;;;113.50;;
6121;SDS011;3091;51.506;7.672;2023-08-12T12:27:17;106.23;;;101.33;;
6121;SDS011;3091;51.506;7.672;2023-08-12T12:29:43;93.80;;;89.40;;
6121;SDS011;3091;51.506;7.672;2023-08-12T12:32:09;84.77;;;80.67;;
6121;SDS011;3091;51.506;7.672;2023-08-12T12:34:36;74.50;;;70.80;;
6121;SDS011;3091;51.506;7.672;2023-08-12T12:37:02;79.77;;;75.87;;
6121;SDS011;3091;51.506;7.672;2023-08-12T12:39:28;86.57;;;82.40;;
6121;SDS011;3091;51.506;7.672;2023-08-12T12:41:57;89.20;;;85.00;;
6121;SDS011;3091;51.506;7.672;2023-08-12T12:44:24;94.67;;;90.17;;
6121;SDS011;3091;51.506;7.672;2023-08-12T12:46:50;110.80;;;105.90;;
6121;SDS011;3091;51.506;7.672;2023-08-12T12:49:16;115.77;;;110.77;;
6121;SDS011;3091;51.506;7.672;2023-08-12T12:51:42;121.13;;;116.03;;
6121;SDS011;3091;51.506;7.672;2023-08-12T12:54:08;130.60;;;125.30;;
6121;SDS011;3091;51.506;7.672;2023-08-12T12:56:37;132.07;;;126.97;;
6121;SDS011;3091;51.506;7.672;2023-08-12T12:59:03;118.53;;;113.93;;
6121;SDS011;3091;51.506;7.672;2023-08-12T13:01:29;105.70;;;101.40;;
6121;SDS011;3091;51.506;7.672;2023-08-12T13:03:55;95.33;;;91.53;;
6121;SDS011;3091;51.506;7.672;2023-08-12T13:06:21;72.50;;;69.50;;
6121;SDS011;3091;51.506;7.672;2023-08-12T13:08:47;63.00;;;60.40;;
6121;SDS011;3091;51.506;7.672;2023-08-12T13:11:14;54.37;;;52.07;;
6121;SDS011;3091;51.506;7.672;2023-08-12T13:13:40;49.23;;;46.77;;
6121;SDS011;3091;51.506;7.672;2023-08-12T13:16:06;42.80;;;41.10;;
6121;SDS011;3091;51.506;7.672;2023-08-12T13:18:35;35.47;;;34.07;;
6121;SDS011;3091;51.506;7.672;2023-08-12T13:21:01;31.00;;;29.80;;
6121;SDS011;3091;51.506;7.672;2023-08-12T13:23:27;29.00;;;27.90;;
6121;SDS011;3091;51.506;7.672;2023-08-12T13:25:56;45.80;;;43.90;;
6121;SDS011;3091;51.506;7.672;2023-08-12T13:28:22;66.00;;;63.10;;
6121;SDS011;3091;51.506;7.672;2023-08-12T13:30:48;62.13;;;59.43;;
6121;SDS011;3091;51.506;7.672;2023-08-12T13:33:14;61.47;;;58.80;;
6121;SDS011;3091;51.506;7.672;2023-08-12T13:35:40;54.27;;;52.07;;
6121;SDS011;3091;51.506;7.672;2023-08-12T13:38:06;30.90;;;29.80;;
6121;SDS011;3091;51.506;7.672;2023-08-12T13:40:33;24.07;;;23.17;;
6121;SDS011;3091;51.506;7.672;2023-08-12T13:42:59;22.40;;;21.60;;
6121;SDS011;3091;51.506;7.672;2023-08-12T13:45:25;24.10;;;23.20;;
6121;SDS011;3091;51.506;7.672;2023-08-12T13:47:53;23.57;;;22.67;;
6121;SDS011;3091;51.506;7.672;2023-08-12T13:50:20;57.37;;;54.80;;
6121;SDS011;3091;51.506;7.672;2023-08-12T13:52:46;121.00;;;115.90;;
6121;SDS011;3091;51.506;7.672;2023-08-12T13:55:15;122.83;;;117.53;;
6121;SDS011;3091;51.506;7.672;2023-08-12T13:57:41;115.63;;;110.43;;
6121;SDS011;3091;51.506;7.672;2023-08-12T14:00:07;97.60;;;93.00;;
6121;SDS011;3091;51.506;7.672;2023-08-12T14:02:38;92.27;;;87.87;;
6121;SDS011;3091;51.506;7.672;2023-08-12T14:05:04;81.67;;;77.57;;
6121;SDS011;3091;51.506;7.672;2023-08-12T14:07:30;82.23;;;78.13;;
6121;SDS011;3091;51.506;7.672;2023-08-12T14:09:57;77.90;;;74.00;;
6121;SDS011;3091;51.506;7.672;2023-08-12T14:12:24;77.43;;;73.53;;
6121;SDS011;3091;51.506;7.672;2023-08-12T14:14:50;78.87;;;74.87;;
6121;SDS011;3091;51.506;7.672;2023-08-12T14:17:16;90.27;;;85.97;;
6121;SDS011;3091;51.506;7.672;2023-08-12T14:19:52;87.90;;;83.60;;
6121;SDS011;3091;51.506;7.672;2023-08-12T14:22:18;93.30;;;88.90;;
6121;SDS011;3091;51.506;7.672;2023-08-12T14:24:45;107.03;;;102.13;;
6121;SDS011;3091;51.506;7.672;2023-08-12T14:27:13;101.90;;;97.20;;
6121;SDS011;3091;51.506;7.672;2023-08-12T14:29:39;101.40;;;96.70;;
6121;SDS011;3091;51.506;7.672;2023-08-12T14:32:05;105.30;;;100.50;;
6121;SDS011;3091;51.506;7.672;2023-08-12T14:34:31;116.03;;;110.93;;
6121;SDS011;3091;51.506;7.672;2023-08-12T14:36:57;114.50;;;109.40;;
6121;SDS011;3091;51.506;7.672;2023-08-12T14:39:23;114.97;;;109.97;;
6121;SDS011;3091;51.506;7.672;2023-08-12T14:41:49;97.17;;;92.80;;
6121;SDS011;3091;51.506;7.672;2023-08-12T14:44:15;97.00;;;92.50;;
6121;SDS011;3091;51.506;7.672;2023-08-12T14:46:41;102.17;;;97.37;;
6121;SDS011;3091;51.506;7.672;2023-08-12T14:49:07;112.03;;;106.93;;
6121;SDS011;3091;51.506;7.672;2023-08-12T14:51:33;105.90;;;100.90;;
6121;SDS011;3091;51.506;7.672;2023-08-12T14:53:59;105.10;;;100.20;;
6121;SDS011;3091;51.506;7.672;2023-08-12T14:56:25;117.80;;;112.23;;
6121;SDS011;3091;51.506;7.672;2023-08-12T14:58:51;110.87;;;105.83;;